createdAt,value
2022-10-19T00:00:51.149Z,13.20
2022-10-19T00:01:51.210Z,13.20
2022-10-19T00:02:51.131Z,12.90
2022-10-19T00:03:51.164Z,13.10
2022-10-19T00:04:51.135Z,13.60
2022-10-19T00:05:51.113Z,14.00
2022-10-19T00:06:51.094Z,15.00
2022-10-19T00:07:51.092Z,13.00
2022-10-19T00:08:51.067Z,12.10
2022-10-19T00:09:51.067Z,12.00
2022-10-19T00:10:51.088Z,12.70
2022-10-19T00:11:51.051Z,12.10
2022-10-19T00:12:51.061Z,12.10
2022-10-19T00:13:51.036Z,13.60
2022-10-19T00:14:51.021Z,12.00
2022-10-19T00:15:51.013Z,12.70
2022-10-19T00:16:51.029Z,12.20
2022-10-19T00:17:51.048Z,11.00
2022-10-19T00:18:50.987Z,11.80
2022-10-19T00:19:50.979Z,11.20
2022-10-19T00:20:50.972Z,11.60
2022-10-19T00:22:50.970Z,10.60
2022-10-19T00:23:50.955Z,15.10
2022-10-19T00:24:50.944Z,10.20
2022-10-19T00:25:50.953Z,11.80
2022-10-19T00:26:50.947Z,12.30
2022-10-19T00:27:50.942Z,12.90
2022-10-19T00:28:51.025Z,11.80
2022-10-19T00:29:50.898Z,13.30
2022-10-19T00:30:50.908Z,14.80
2022-10-19T00:31:50.882Z,15.40
2022-10-19T00:32:50.887Z,20.70
2022-10-19T00:33:50.886Z,18.90
2022-10-19T00:34:50.878Z,21.90
2022-10-19T00:35:50.849Z,16.50
2022-10-19T00:36:50.853Z,13.60
2022-10-19T00:37:50.825Z,12.80
2022-10-19T00:38:50.837Z,10.80
2022-10-19T00:40:50.815Z,14.60
2022-10-19T00:41:50.798Z,20.50
2022-10-19T00:42:50.797Z,17.90
2022-10-19T00:43:50.782Z,19.30
2022-10-19T00:44:50.794Z,17.50
2022-10-19T00:45:50.765Z,13.90
2022-10-19T00:46:50.753Z,16.70
2022-10-19T00:47:50.746Z,18.70
2022-10-19T00:48:50.747Z,16.80
2022-10-19T00:49:50.731Z,11.70
2022-10-19T00:50:50.740Z,13.70
2022-10-19T00:51:50.713Z,15.20
2022-10-19T00:52:50.702Z,11.80
2022-10-19T00:53:50.698Z,19.20
2022-10-19T00:54:50.692Z,10.90
2022-10-19T00:55:50.681Z,14.00
2022-10-19T00:56:50.704Z,15.20
2022-10-19T00:58:50.666Z,8.80
2022-10-19T00:59:50.654Z,8.60
2022-10-19T01:00:50.683Z,8.10
2022-10-19T01:01:50.642Z,8.00
2022-10-19T01:02:50.694Z,8.00
2022-10-19T01:03:50.634Z,7.60
2022-10-19T01:04:50.613Z,6.40
2022-10-19T01:05:50.607Z,6.60
2022-10-19T01:07:50.592Z,13.00
2022-10-19T01:08:50.607Z,9.60
2022-10-19T01:09:50.582Z,10.50
2022-10-19T01:10:50.574Z,10.60
2022-10-19T01:11:50.564Z,12.10
2022-10-19T01:12:50.557Z,10.60
2022-10-19T01:13:50.556Z,12.30
2022-10-19T01:14:50.574Z,12.60
2022-10-19T01:15:50.636Z,11.70
2022-10-19T01:16:50.521Z,11.50
2022-10-19T01:17:50.517Z,11.80
2022-10-19T01:18:50.536Z,10.50
2022-10-19T01:19:50.493Z,12.10
2022-10-19T01:20:50.521Z,12.20
2022-10-19T01:21:50.483Z,7.90
2022-10-19T01:22:50.475Z,8.00
2022-10-19T01:23:50.471Z,7.60
2022-10-19T01:24:50.505Z,7.20
2022-10-19T01:25:50.460Z,8.20
2022-10-19T01:26:50.480Z,10.60
2022-10-19T01:27:50.446Z,8.00
2022-10-19T01:28:50.535Z,7.60
2022-10-19T01:29:50.421Z,7.50
2022-10-19T01:30:50.441Z,7.60
2022-10-19T01:31:50.420Z,6.70
2022-10-19T01:32:50.397Z,7.10
2022-10-19T01:33:50.451Z,6.20
2022-10-19T01:34:50.387Z,6.20
2022-10-19T01:35:50.380Z,6.20
2022-10-19T01:36:50.375Z,5.80
2022-10-19T01:37:50.365Z,5.70
2022-10-19T01:38:50.380Z,5.40
2022-10-19T01:39:50.363Z,6.00
2022-10-19T01:40:50.392Z,7.00
2022-10-19T01:41:50.331Z,6.00
2022-10-19T01:42:50.375Z,6.20
2022-10-19T01:43:50.320Z,6.40
2022-10-19T01:44:50.312Z,6.10
2022-10-19T01:45:50.309Z,7.20
2022-10-19T01:46:50.308Z,6.30
2022-10-19T01:47:50.288Z,6.00
2022-10-19T01:48:50.279Z,6.90
2022-10-19T01:49:50.274Z,7.10
2022-10-19T01:50:50.269Z,7.10
2022-10-19T01:51:50.294Z,9.40
2022-10-19T01:52:50.255Z,7.80
2022-10-19T01:53:50.240Z,8.60
2022-10-19T01:54:50.233Z,12.80
2022-10-19T01:55:50.222Z,10.50
2022-10-19T01:56:50.234Z,9.50
2022-10-19T01:57:50.222Z,8.10
2022-10-19T01:58:50.206Z,6.70
2022-10-19T01:59:50.195Z,6.20
2022-10-19T02:00:50.276Z,5.90
2022-10-19T02:01:50.177Z,5.90
2022-10-19T02:02:50.277Z,5.40
2022-10-19T02:03:50.180Z,5.10
2022-10-19T02:04:50.165Z,4.90
2022-10-19T02:05:50.170Z,4.30
2022-10-19T02:06:50.202Z,4.50
2022-10-19T02:07:50.138Z,4.70
2022-10-19T02:08:50.130Z,4.50
2022-10-19T02:09:50.111Z,4.40
2022-10-19T02:10:50.121Z,4.20
2022-10-19T02:11:51.336Z,4.20
2022-10-19T02:12:50.116Z,4.50
2022-10-19T02:13:50.107Z,4.10
2022-10-19T02:14:50.102Z,4.00
2022-10-19T02:15:50.074Z,4.00
2022-10-19T02:16:50.066Z,4.00
2022-10-19T02:17:50.061Z,3.80
2022-10-19T02:18:50.084Z,3.70
2022-10-19T02:19:50.040Z,3.70
2022-10-19T02:20:50.041Z,3.60
2022-10-19T02:21:50.032Z,3.70
2022-10-19T02:22:50.030Z,3.70
2022-10-19T02:23:51.887Z,3.50
2022-10-19T02:24:50.026Z,3.60
2022-10-19T02:25:50.001Z,3.50
2022-10-19T02:26:50.028Z,3.30
2022-10-19T02:27:50.020Z,3.20
2022-10-19T02:28:49.982Z,3.50
2022-10-19T02:29:49.968Z,3.80
2022-10-19T02:30:49.973Z,3.90
2022-10-19T02:31:49.960Z,4.60
2022-10-19T02:32:49.959Z,4.50
2022-10-19T02:33:49.968Z,4.70
2022-10-19T02:34:49.937Z,4.70
2022-10-19T02:35:49.925Z,5.10
2022-10-19T02:36:49.921Z,4.60
2022-10-19T02:37:49.913Z,4.80
2022-10-19T02:38:49.909Z,4.80
2022-10-19T02:39:49.921Z,4.70
2022-10-19T02:40:49.898Z,4.90
2022-10-19T02:41:49.886Z,5.00
2022-10-19T02:42:49.903Z,4.70
2022-10-19T02:43:49.890Z,5.00
2022-10-19T02:44:49.871Z,4.90
2022-10-19T02:45:49.877Z,5.20
2022-10-19T02:46:49.877Z,5.00
2022-10-19T02:47:49.841Z,5.30
2022-10-19T02:48:49.845Z,5.30
2022-10-19T02:49:49.834Z,4.50
2022-10-19T02:50:49.822Z,4.20
2022-10-19T02:51:49.815Z,3.90
2022-10-19T02:52:49.833Z,4.10
2022-10-19T02:53:49.802Z,4.00
2022-10-19T02:54:49.792Z,3.60
2022-10-19T02:55:49.785Z,3.90
2022-10-19T02:56:49.781Z,3.90
2022-10-19T02:57:49.822Z,4.00
2022-10-19T02:58:49.798Z,4.30
2022-10-19T02:59:49.757Z,4.40
2022-10-19T03:00:49.873Z,4.70
2022-10-19T03:01:49.742Z,4.60
2022-10-19T03:02:49.738Z,4.60
2022-10-19T03:03:49.780Z,4.20
2022-10-19T03:04:49.774Z,4.50
2022-10-19T03:05:49.707Z,4.70
2022-10-19T03:06:49.709Z,4.60
2022-10-19T03:07:49.695Z,4.90
2022-10-19T03:08:49.700Z,4.80
2022-10-19T03:09:49.687Z,5.80
2022-10-19T03:10:49.691Z,5.50
2022-10-19T03:11:49.667Z,5.40
2022-10-19T03:12:49.651Z,5.30
2022-10-19T03:13:49.649Z,4.90
2022-10-19T03:14:49.661Z,5.10
2022-10-19T03:15:49.632Z,7.40
2022-10-19T03:16:49.620Z,7.10
2022-10-19T03:17:49.636Z,6.10
2022-10-19T03:18:49.603Z,5.70
2022-10-19T03:19:49.604Z,5.60
2022-10-19T03:20:49.596Z,5.30
2022-10-19T03:21:49.581Z,5.90
2022-10-19T03:22:49.604Z,5.60
2022-10-19T03:23:49.588Z,5.90
2022-10-19T03:24:49.601Z,6.30
2022-10-19T03:25:49.556Z,6.60
2022-10-19T03:26:49.551Z,6.90
2022-10-19T03:27:49.539Z,6.20
2022-10-19T03:28:49.559Z,5.60
2022-10-19T03:29:49.531Z,5.30
2022-10-19T03:30:49.532Z,5.40
2022-10-19T03:31:49.510Z,5.30
2022-10-19T03:32:49.505Z,5.00
2022-10-19T03:33:49.517Z,5.50
2022-10-19T03:34:49.490Z,5.00
2022-10-19T03:35:49.471Z,4.80
2022-10-19T03:36:49.481Z,5.50
2022-10-19T03:37:49.470Z,5.60
2022-10-19T03:38:49.468Z,5.40
2022-10-19T03:39:49.465Z,5.40
2022-10-19T03:40:49.452Z,4.70
2022-10-19T03:41:49.437Z,5.10
2022-10-19T03:42:49.427Z,4.80
2022-10-19T03:43:49.475Z,4.60
2022-10-19T03:44:49.413Z,4.50
2022-10-19T03:45:49.413Z,4.80
2022-10-19T03:46:49.401Z,4.60
2022-10-19T03:47:49.447Z,4.80
2022-10-19T03:48:49.383Z,4.60
2022-10-19T03:49:49.411Z,4.70
2022-10-19T03:50:49.369Z,4.40
2022-10-19T03:51:49.361Z,4.40
2022-10-19T03:52:49.435Z,4.20
2022-10-19T03:53:49.361Z,4.00
2022-10-19T03:54:49.331Z,3.70
2022-10-19T03:55:49.327Z,3.60
2022-10-19T03:56:49.355Z,3.70
2022-10-19T03:57:49.335Z,3.90
2022-10-19T03:58:49.309Z,3.40
2022-10-19T03:59:49.320Z,3.60
2022-10-19T04:00:49.353Z,3.80
2022-10-19T04:01:49.310Z,3.80
2022-10-19T04:02:49.284Z,3.60
2022-10-19T04:03:49.277Z,3.80
2022-10-19T04:04:49.271Z,3.70
2022-10-19T04:05:49.261Z,3.80
2022-10-19T04:06:49.251Z,3.90
2022-10-19T04:07:49.263Z,3.70
2022-10-19T04:08:49.240Z,3.50
2022-10-19T04:09:49.243Z,3.70
2022-10-19T04:10:49.249Z,3.70
2022-10-19T04:11:49.214Z,3.80
2022-10-19T04:12:53.664Z,3.80
2022-10-19T04:13:49.199Z,4.00
2022-10-19T04:14:57.693Z,3.50
2022-10-19T04:15:50.202Z,3.60
2022-10-19T04:16:49.202Z,3.20
2022-10-19T04:17:49.173Z,3.20
2022-10-19T04:18:49.170Z,3.30
2022-10-19T04:19:49.158Z,3.80
2022-10-19T04:20:49.161Z,3.40
2022-10-19T04:21:49.146Z,3.50
2022-10-19T04:22:49.163Z,3.40
2022-10-19T04:23:49.127Z,3.90
2022-10-19T04:24:49.121Z,3.30
2022-10-19T04:25:49.120Z,3.70
2022-10-19T04:26:49.105Z,3.70
2022-10-19T04:27:49.096Z,3.70
2022-10-19T04:28:49.154Z,4.40
2022-10-19T04:29:49.101Z,4.00
2022-10-19T04:30:49.065Z,3.90
2022-10-19T04:31:49.069Z,3.70
2022-10-19T04:32:49.063Z,3.80
2022-10-19T04:33:49.060Z,4.00
2022-10-19T04:34:49.064Z,3.80
2022-10-19T04:35:49.037Z,3.90
2022-10-19T04:36:49.034Z,3.90
2022-10-19T04:37:49.018Z,4.20
2022-10-19T04:38:49.017Z,4.20
2022-10-19T04:39:49.000Z,3.80
2022-10-19T04:40:49.017Z,3.80
2022-10-19T04:41:48.985Z,4.70
2022-10-19T04:42:48.981Z,6.00
2022-10-19T04:43:48.981Z,4.40
2022-10-19T04:44:48.969Z,3.80
2022-10-19T04:45:48.954Z,4.00
2022-10-19T04:46:48.971Z,3.60
2022-10-19T04:47:48.938Z,3.10
2022-10-19T04:48:48.937Z,3.20
2022-10-19T04:49:48.927Z,3.10
2022-10-19T04:50:48.925Z,3.00
2022-10-19T04:51:48.923Z,3.70
2022-10-19T04:52:48.913Z,3.60
2022-10-19T04:53:48.894Z,3.60
2022-10-19T04:54:48.908Z,3.70
2022-10-19T04:55:48.881Z,3.40
2022-10-19T04:56:48.876Z,3.40
2022-10-19T04:57:48.872Z,4.50
2022-10-19T04:58:48.851Z,4.40
2022-10-19T04:59:48.838Z,4.20
2022-10-19T05:00:48.875Z,4.50
2022-10-19T05:01:48.852Z,4.00
2022-10-19T05:02:48.833Z,3.90
2022-10-19T05:03:48.851Z,3.90
2022-10-19T05:04:48.857Z,4.90
2022-10-19T05:05:48.796Z,5.90
2022-10-19T05:06:48.788Z,4.90
2022-10-19T05:07:48.787Z,4.30
2022-10-19T05:08:48.784Z,4.10
2022-10-19T05:09:48.791Z,4.30
2022-10-19T05:10:48.781Z,5.10
2022-10-19T05:11:48.754Z,4.60
2022-10-19T05:12:48.741Z,4.90
2022-10-19T05:13:48.734Z,7.50
2022-10-19T05:14:48.796Z,5.80
2022-10-19T05:15:48.721Z,4.40
2022-10-19T05:16:48.724Z,5.80
2022-10-19T05:17:48.708Z,5.10
2022-10-19T05:18:48.705Z,4.70
2022-10-19T05:19:48.700Z,4.70
2022-10-19T05:20:48.710Z,5.00
2022-10-19T05:21:48.681Z,5.10
2022-10-19T05:22:48.682Z,4.40
2022-10-19T05:23:48.673Z,4.50
2022-10-19T05:24:48.667Z,4.20
2022-10-19T05:25:48.668Z,4.10
2022-10-19T05:26:48.667Z,3.70
2022-10-19T05:27:48.640Z,3.50
2022-10-19T05:28:48.685Z,3.60
2022-10-19T05:29:48.624Z,3.80
2022-10-19T05:30:49.126Z,3.60
2022-10-19T05:31:48.640Z,4.20
2022-10-19T05:32:48.603Z,4.00
2022-10-19T05:33:48.595Z,4.40
2022-10-19T05:34:48.585Z,4.30
2022-10-19T05:35:48.587Z,3.80
2022-10-19T05:36:48.569Z,3.80
2022-10-19T05:37:48.582Z,7.30
2022-10-19T05:38:48.558Z,4.60
2022-10-19T05:39:48.545Z,5.80
2022-10-19T05:40:52.954Z,5.40
2022-10-19T05:41:49.529Z,6.20
2022-10-19T05:42:48.530Z,5.60
2022-10-19T05:43:48.527Z,4.70
2022-10-19T05:44:48.542Z,4.00
2022-10-19T05:45:48.499Z,7.60
2022-10-19T05:46:48.494Z,5.40
2022-10-19T05:47:48.490Z,5.40
2022-10-19T05:48:48.481Z,6.00
2022-10-19T05:49:48.473Z,10.10
2022-10-19T05:50:48.484Z,7.30
2022-10-19T05:51:48.453Z,6.30
2022-10-19T05:52:48.455Z,4.90
2022-10-19T05:53:48.466Z,4.50
2022-10-19T05:54:48.445Z,5.20
2022-10-19T05:55:48.442Z,5.90
2022-10-19T05:56:48.423Z,4.60
2022-10-19T05:57:48.461Z,6.60
2022-10-19T05:58:48.399Z,4.80
2022-10-19T05:59:48.397Z,4.80
2022-10-19T06:00:48.390Z,5.10
2022-10-19T06:01:48.434Z,4.70
2022-10-19T06:02:48.373Z,4.80
2022-10-19T06:03:48.384Z,4.60
2022-10-19T06:04:48.389Z,4.20
2022-10-19T06:05:48.362Z,4.90
2022-10-19T06:06:48.350Z,5.80
2022-10-19T06:07:48.344Z,5.00
2022-10-19T06:08:48.366Z,4.50
2022-10-19T06:09:48.337Z,4.30
2022-10-19T06:10:48.337Z,3.90
2022-10-19T06:11:48.319Z,3.70
2022-10-19T06:12:48.305Z,4.10
2022-10-19T06:13:48.324Z,4.20
2022-10-19T06:14:48.360Z,3.60
2022-10-19T06:15:48.294Z,4.10
2022-10-19T06:16:48.281Z,3.50
2022-10-19T06:17:48.263Z,4.40
2022-10-19T06:18:48.274Z,4.50
2022-10-19T06:19:48.255Z,7.70
2022-10-19T06:20:48.273Z,5.40
2022-10-19T06:21:48.264Z,3.90
2022-10-19T06:22:48.234Z,4.20
2022-10-19T06:23:48.237Z,3.90
2022-10-19T06:24:48.225Z,4.20
2022-10-19T06:25:48.214Z,4.30
2022-10-19T06:26:48.226Z,5.00
2022-10-19T06:27:48.228Z,5.00
2022-10-19T06:28:48.194Z,3.90
2022-10-19T06:29:48.179Z,3.50
2022-10-19T06:30:48.260Z,3.70
2022-10-19T06:31:48.183Z,3.70
2022-10-19T06:32:48.261Z,4.30
2022-10-19T06:33:49.471Z,3.60
2022-10-19T06:34:48.841Z,3.40
2022-10-19T06:35:48.153Z,3.80
2022-10-19T06:36:48.136Z,5.10
2022-10-19T06:37:48.121Z,4.30
2022-10-19T06:38:48.150Z,4.10
2022-10-19T06:39:48.145Z,4.40
2022-10-19T06:40:48.105Z,4.00
2022-10-19T06:41:48.101Z,4.60
2022-10-19T06:42:48.110Z,4.00
2022-10-19T06:43:48.090Z,4.30
2022-10-19T06:44:48.100Z,4.50
2022-10-19T06:45:48.093Z,4.00
2022-10-19T06:46:48.067Z,6.30
2022-10-19T06:48:48.045Z,5.30
2022-10-19T06:49:48.070Z,5.40
2022-10-19T06:50:48.034Z,5.30
2022-10-19T06:51:48.030Z,6.50
2022-10-19T06:52:48.014Z,5.00
2022-10-19T06:53:49.708Z,5.10
2022-10-19T06:54:49.014Z,5.30
2022-10-19T06:55:48.000Z,5.00
2022-10-19T06:57:47.978Z,7.40
2022-10-19T06:58:47.973Z,9.00
2022-10-19T06:59:50.186Z,8.20
2022-10-19T07:00:48.012Z,5.50
2022-10-19T07:01:47.976Z,5.30
2022-10-19T07:02:47.939Z,4.80
2022-10-19T07:03:47.929Z,9.80
2022-10-19T07:04:47.929Z,9.40
2022-10-19T07:05:47.916Z,7.00
2022-10-19T07:06:47.915Z,8.70
2022-10-19T07:07:47.947Z,6.50
2022-10-19T07:08:47.894Z,6.30
2022-10-19T07:09:47.887Z,6.30
2022-10-19T07:10:47.882Z,5.90
2022-10-19T07:11:47.862Z,5.60
2022-10-19T07:12:47.865Z,6.10
2022-10-19T07:13:47.880Z,8.00
2022-10-19T07:14:47.849Z,7.80
2022-10-19T07:15:47.834Z,6.50
2022-10-19T07:16:47.852Z,6.60
2022-10-19T07:17:47.830Z,10.70
2022-10-19T07:18:47.825Z,6.60
2022-10-19T07:19:47.813Z,7.20
2022-10-19T07:20:47.800Z,11.30
2022-10-19T07:21:47.785Z,12.90
2022-10-19T07:22:47.805Z,11.90
2022-10-19T07:23:47.799Z,11.10
2022-10-19T07:24:47.769Z,12.20
2022-10-19T07:25:47.762Z,11.60
2022-10-19T07:26:47.770Z,10.60
2022-10-19T07:27:47.755Z,13.50
2022-10-19T07:28:47.740Z,14.10
2022-10-19T07:29:47.742Z,10.50
2022-10-19T07:30:47.724Z,14.10
2022-10-19T07:31:47.712Z,10.10
2022-10-19T07:32:47.703Z,8.40
2022-10-19T07:33:47.692Z,7.90
2022-10-19T07:34:47.712Z,9.70
2022-10-19T07:35:47.690Z,13.00
2022-10-19T07:36:47.675Z,13.30
2022-10-19T07:37:47.669Z,9.60
2022-10-19T07:38:47.667Z,10.20
2022-10-19T07:39:47.650Z,9.90
2022-10-19T07:43:33.196Z,13.60
2022-10-19T07:44:19.268Z,13.40
2022-10-19T07:45:19.252Z,20.30
2022-10-19T07:46:19.274Z,13.90
2022-10-19T07:47:19.264Z,11.30
2022-10-19T07:48:19.237Z,10.70
2022-10-19T07:49:19.229Z,10.60
2022-10-19T07:50:19.232Z,10.10
2022-10-19T07:51:19.252Z,12.10
2022-10-19T07:52:19.233Z,12.50
2022-10-19T07:53:19.197Z,12.70
2022-10-19T07:54:19.196Z,11.20
2022-10-19T07:55:19.209Z,11.10
2022-10-19T07:56:19.186Z,15.60
2022-10-19T07:57:19.182Z,14.30
2022-10-19T07:58:19.291Z,10.50
2022-10-19T07:59:19.176Z,10.70
2022-10-19T08:00:19.155Z,17.10
2022-10-19T08:01:19.136Z,17.40
2022-10-19T08:02:19.163Z,13.30
2022-10-19T08:04:13.848Z,14.50
2022-10-19T08:05:20.188Z,16.70
2022-10-19T08:06:19.095Z,12.20
2022-10-19T08:07:19.111Z,15.70
2022-10-19T08:08:19.083Z,12.50
2022-10-19T08:09:47.342Z,14.30
2022-10-19T08:10:20.108Z,17.50
2022-10-19T08:11:19.073Z,11.70
2022-10-19T08:12:19.064Z,9.80
2022-10-19T08:13:19.043Z,10.50
2022-10-19T08:14:19.041Z,22.00
2022-10-19T08:15:19.049Z,15.60
2022-10-19T08:16:19.023Z,14.20
2022-10-19T08:17:19.046Z,14.00
2022-10-19T08:18:19.050Z,11.40
2022-10-19T08:19:18.993Z,16.00
2022-10-19T08:20:19.002Z,11.80
2022-10-19T08:21:18.984Z,12.70
2022-10-19T08:22:18.973Z,11.80
2022-10-19T08:23:18.988Z,9.20
2022-10-19T08:24:18.988Z,14.50
2022-10-19T08:25:18.968Z,13.80
2022-10-19T08:26:18.950Z,17.20
2022-10-19T08:27:18.930Z,20.10
2022-10-19T08:28:18.931Z,12.90
2022-10-19T08:29:18.963Z,10.10
2022-10-19T08:30:18.919Z,9.90
2022-10-19T08:31:18.959Z,10.80
2022-10-19T08:32:18.894Z,10.20
2022-10-19T08:33:18.892Z,14.00
2022-10-19T08:34:18.900Z,18.20
2022-10-19T08:35:18.865Z,10.00
2022-10-19T08:36:18.864Z,11.00
2022-10-19T08:37:26.374Z,11.10
2022-10-19T08:38:19.846Z,11.20
2022-10-19T08:39:18.837Z,12.30
2022-10-19T08:40:18.835Z,12.00
2022-10-19T08:41:18.845Z,9.40
2022-10-19T08:42:18.811Z,11.80
2022-10-19T08:43:18.817Z,11.20
2022-10-19T08:44:18.799Z,11.60
2022-10-19T08:45:18.789Z,9.70
2022-10-19T08:46:18.800Z,9.60
2022-10-19T08:47:23.253Z,8.90
2022-10-19T08:48:18.783Z,8.60
2022-10-19T08:49:18.778Z,8.00
2022-10-19T08:50:18.753Z,8.30
2022-10-19T08:51:18.761Z,8.00
2022-10-19T08:52:18.761Z,6.80
2022-10-19T08:53:18.733Z,7.20
2022-10-19T08:54:18.722Z,6.40
2022-10-19T08:55:20.569Z,8.10
2022-10-19T08:56:38.863Z,7.10
2022-10-19T08:57:19.697Z,7.00
2022-10-19T08:58:18.688Z,6.60
2022-10-19T08:59:18.679Z,6.70
2022-10-19T09:00:18.682Z,6.40
2022-10-19T09:01:18.700Z,6.30
2022-10-19T09:02:18.660Z,5.80
2022-10-19T09:03:27.130Z,5.20
2022-10-19T09:04:19.652Z,5.50
2022-10-19T09:05:18.630Z,5.50
2022-10-19T09:06:18.628Z,5.00
2022-10-19T09:07:18.640Z,4.40
2022-10-19T09:08:18.606Z,4.10
2022-10-19T09:09:18.602Z,4.60
2022-10-19T09:10:18.589Z,4.70
2022-10-19T09:11:18.589Z,4.90
2022-10-19T09:12:18.577Z,4.50
2022-10-19T09:13:18.587Z,5.20
2022-10-19T09:14:18.554Z,4.90
2022-10-19T09:15:18.560Z,4.70
2022-10-19T09:16:18.538Z,4.50
2022-10-19T09:17:18.535Z,4.90
2022-10-19T09:18:18.549Z,4.50
2022-10-19T09:19:18.520Z,4.80
2022-10-19T09:20:18.561Z,5.40
2022-10-19T09:21:18.495Z,4.60
2022-10-19T09:22:18.498Z,5.50
2022-10-19T09:23:18.487Z,4.50
2022-10-19T09:24:18.498Z,4.50
2022-10-19T09:25:18.472Z,4.60
2022-10-19T09:26:18.464Z,4.60
2022-10-19T09:27:18.458Z,5.10
2022-10-19T09:28:18.465Z,4.90
2022-10-19T09:29:18.441Z,5.40
2022-10-19T09:30:18.513Z,4.30
2022-10-19T09:31:18.426Z,4.20
2022-10-19T09:32:18.424Z,4.10
2022-10-19T09:33:18.430Z,3.90
2022-10-19T09:34:18.411Z,3.80
2022-10-19T09:35:18.425Z,3.10
2022-10-19T09:36:23.047Z,3.60
2022-10-19T09:37:25.708Z,3.40
2022-10-19T09:38:19.384Z,3.80
2022-10-19T09:39:18.370Z,4.20
2022-10-19T09:40:18.419Z,4.00
2022-10-19T09:41:18.378Z,3.60
2022-10-19T09:42:18.352Z,3.70
2022-10-19T09:43:18.342Z,2.90
2022-10-19T09:44:18.330Z,2.80
2022-10-19T09:45:18.331Z,3.20
2022-10-19T09:46:20.316Z,2.80
2022-10-19T09:47:18.344Z,2.80
2022-10-19T09:48:18.326Z,2.30
2022-10-19T09:49:18.298Z,2.20
2022-10-19T09:50:18.386Z,2.10
2022-10-19T09:51:18.314Z,2.00
2022-10-19T09:52:18.290Z,1.90
2022-10-19T09:53:18.271Z,1.70
2022-10-19T09:54:18.286Z,2.30
2022-10-19T09:55:18.260Z,1.90
2022-10-19T09:56:18.250Z,1.80
2022-10-19T09:57:18.266Z,1.60
2022-10-19T09:58:18.259Z,1.50
2022-10-19T09:59:18.230Z,1.70
2022-10-19T10:00:18.221Z,1.30
2022-10-19T10:01:18.240Z,1.40
2022-10-19T10:02:18.224Z,1.30
2022-10-19T10:03:18.207Z,1.60
2022-10-19T10:04:18.200Z,1.40
2022-10-19T10:05:18.197Z,1.40
2022-10-19T10:06:18.209Z,1.10
2022-10-19T10:07:18.184Z,1.20
2022-10-19T10:08:18.166Z,1.10
2022-10-19T10:09:18.169Z,1.20
2022-10-19T10:10:18.167Z,1.00
2022-10-19T10:11:18.180Z,1.10
2022-10-19T10:12:18.143Z,1.30
2022-10-19T10:13:18.131Z,1.00
2022-10-19T10:14:18.131Z,1.30
2022-10-19T10:15:18.121Z,1.10
2022-10-19T10:16:18.124Z,1.00
2022-10-19T10:17:18.134Z,1.20
2022-10-19T10:18:18.113Z,1.20
2022-10-19T10:19:18.117Z,1.10
2022-10-19T10:20:18.090Z,1.00
2022-10-19T10:21:20.537Z,1.00
2022-10-19T10:22:18.095Z,0.90
2022-10-19T10:23:18.066Z,1.10
2022-10-19T10:24:18.062Z,1.10
2022-10-19T10:25:18.082Z,1.10
2022-10-19T10:26:18.041Z,1.40
2022-10-19T10:27:18.031Z,1.00
2022-10-19T10:28:18.033Z,0.90
2022-10-19T10:29:18.027Z,1.30
2022-10-19T10:30:18.011Z,1.00
2022-10-19T10:31:18.034Z,1.20
2022-10-19T10:32:17.999Z,1.40
2022-10-19T10:33:26.910Z,0.90
2022-10-19T10:34:23.164Z,1.10
2022-10-19T10:35:18.981Z,1.00
2022-10-19T10:36:18.007Z,1.00
2022-10-19T10:37:17.967Z,1.00
2022-10-19T10:38:17.951Z,1.10
2022-10-19T10:39:17.962Z,1.10
2022-10-19T10:40:21.330Z,1.00
2022-10-19T10:41:17.974Z,1.30
2022-10-19T10:42:17.929Z,1.10
2022-10-19T10:43:17.925Z,1.10
2022-10-19T10:44:17.934Z,1.00
2022-10-19T10:45:17.910Z,1.20
2022-10-19T10:46:17.916Z,1.10
2022-10-19T10:47:17.923Z,1.10
2022-10-19T10:48:17.907Z,1.30
2022-10-19T10:49:17.872Z,1.00
2022-10-19T10:50:17.868Z,1.10
2022-10-19T10:51:17.889Z,1.20
2022-10-19T10:52:17.855Z,1.10
2022-10-19T10:53:17.856Z,1.30
2022-10-19T10:54:17.863Z,1.10
2022-10-19T10:55:17.836Z,1.10
2022-10-19T10:56:17.818Z,1.10
2022-10-19T10:57:17.849Z,1.10
2022-10-19T10:58:17.816Z,1.10
2022-10-19T10:59:17.814Z,1.20
2022-10-19T11:00:17.799Z,1.10
2022-10-19T11:01:17.799Z,1.20
2022-10-19T11:02:17.810Z,1.10
2022-10-19T11:03:17.764Z,1.30
2022-10-19T11:04:17.763Z,1.20
2022-10-19T11:05:17.772Z,1.40
2022-10-19T11:06:17.795Z,1.50
2022-10-19T11:07:17.747Z,1.90
2022-10-19T11:08:17.737Z,1.80
2022-10-19T11:09:17.737Z,1.70
2022-10-19T11:10:17.755Z,1.30
2022-10-19T11:11:17.715Z,1.80
2022-10-19T11:12:17.712Z,1.50
2022-10-19T11:13:17.694Z,1.60
2022-10-19T11:14:17.689Z,1.30
2022-10-19T11:15:17.775Z,1.50
2022-10-19T11:16:17.729Z,1.30
2022-10-19T11:17:17.664Z,1.40
2022-10-19T11:18:17.706Z,1.40
2022-10-19T11:19:17.649Z,1.40
2022-10-19T11:20:17.659Z,1.40
2022-10-19T11:21:17.653Z,1.50
2022-10-19T11:22:17.655Z,1.30
2022-10-19T11:23:17.634Z,1.50
2022-10-19T11:24:17.662Z,1.50
2022-10-19T11:25:17.598Z,1.40
2022-10-19T11:26:17.616Z,1.40
2022-10-19T11:27:17.631Z,1.40
2022-10-19T11:28:17.578Z,1.60
2022-10-19T11:29:17.566Z,1.60
2022-10-19T11:30:17.571Z,1.40
2022-10-19T11:31:17.564Z,1.30
2022-10-19T11:32:17.554Z,1.30
2022-10-19T11:33:17.573Z,1.10
2022-10-19T11:34:18.060Z,1.30
2022-10-19T11:35:17.528Z,1.40
2022-10-19T11:36:17.522Z,1.20
2022-10-19T11:37:17.519Z,1.30
2022-10-19T11:38:20.705Z,1.30
2022-10-19T11:39:18.514Z,1.60
2022-10-19T11:40:21.842Z,1.20
2022-10-19T11:41:18.607Z,1.50
2022-10-19T11:42:17.482Z,1.60
2022-10-19T11:43:17.467Z,1.30
2022-10-19T11:44:17.537Z,1.20
2022-10-19T11:45:17.452Z,1.30
2022-10-19T11:46:17.452Z,1.50
2022-10-19T11:47:17.445Z,1.30
2022-10-19T11:48:17.440Z,1.30
2022-10-19T11:49:17.435Z,1.50
2022-10-19T11:50:17.459Z,1.50
2022-10-19T11:51:21.809Z,1.40
2022-10-19T11:52:17.402Z,1.40
2022-10-19T11:53:17.392Z,1.20
2022-10-19T11:54:17.389Z,1.10
2022-10-19T11:55:17.408Z,1.10
2022-10-19T11:56:17.391Z,1.30
2022-10-19T11:57:17.368Z,1.30
2022-10-19T11:58:17.359Z,1.10
2022-10-19T11:59:17.386Z,1.60
2022-10-19T12:00:37.704Z,1.40
2022-10-19T12:01:18.355Z,1.40
2022-10-19T12:02:17.441Z,1.50
2022-10-19T12:03:17.329Z,1.20
2022-10-19T12:04:17.317Z,1.40
2022-10-19T12:05:17.306Z,1.30
2022-10-19T12:06:17.298Z,1.20
2022-10-19T12:07:17.312Z,1.10
2022-10-19T12:08:17.299Z,1.30
2022-10-19T12:09:17.351Z,1.20
2022-10-19T12:10:17.274Z,1.40
2022-10-19T12:11:17.273Z,1.10
2022-10-19T12:12:17.286Z,1.40
2022-10-19T12:13:17.249Z,1.40
2022-10-19T12:14:17.252Z,1.30
2022-10-19T12:15:17.335Z,1.40
2022-10-19T12:16:17.233Z,1.30
2022-10-19T12:17:17.237Z,1.30
2022-10-19T12:18:17.243Z,1.20
2022-10-19T12:19:17.215Z,1.10
2022-10-19T12:20:19.709Z,1.40
2022-10-19T12:21:17.200Z,1.10
2022-10-19T12:22:17.192Z,1.30
2022-10-19T12:23:17.190Z,1.40
2022-10-19T12:24:17.175Z,1.30
2022-10-19T12:25:17.174Z,1.40
2022-10-19T12:27:17.149Z,1.30
2022-10-19T12:28:17.167Z,1.40
2022-10-19T12:29:17.127Z,1.20
2022-10-19T12:30:17.133Z,1.40
2022-10-19T12:31:17.118Z,1.30
2022-10-19T12:32:17.113Z,1.30
2022-10-19T12:33:17.123Z,1.40
2022-10-19T12:34:17.115Z,1.40
2022-10-19T12:35:17.219Z,1.30
2022-10-19T12:36:17.072Z,1.50
2022-10-19T12:37:17.072Z,1.40
2022-10-19T12:38:17.067Z,1.30
2022-10-19T12:39:17.064Z,1.80
2022-10-19T12:40:17.062Z,1.60
2022-10-19T12:41:17.037Z,1.40
2022-10-19T12:42:17.038Z,1.50
2022-10-19T12:43:17.022Z,1.40
2022-10-19T12:44:17.107Z,1.40
2022-10-19T12:45:17.024Z,1.20
2022-10-19T12:46:17.003Z,1.20
2022-10-19T12:47:17.008Z,1.20
2022-10-19T12:48:17.023Z,1.20
2022-10-19T12:49:16.978Z,1.50
2022-10-19T12:50:17.009Z,1.30
2022-10-19T12:51:16.957Z,1.60
2022-10-19T12:52:16.972Z,1.40
2022-10-19T12:53:16.998Z,1.30
2022-10-19T12:54:16.947Z,1.40
2022-10-19T12:55:16.950Z,1.70
2022-10-19T12:56:16.923Z,1.70
2022-10-19T12:57:21.902Z,1.60
2022-10-19T12:58:17.906Z,1.60
2022-10-19T12:59:16.931Z,1.50
2022-10-19T13:00:16.896Z,1.50
2022-10-19T13:01:16.977Z,1.50
2022-10-19T13:02:16.882Z,1.50
2022-10-19T13:03:16.887Z,1.40
2022-10-19T13:04:16.892Z,1.60
2022-10-19T13:05:16.853Z,1.50
2022-10-19T13:06:16.844Z,1.50
2022-10-19T13:07:16.834Z,1.60
2022-10-19T13:08:16.830Z,1.50
2022-10-19T13:09:16.819Z,1.50
2022-10-19T13:10:16.837Z,2.00
2022-10-19T13:11:16.808Z,1.40
2022-10-19T13:12:21.305Z,1.80
2022-10-19T13:13:17.788Z,1.60
2022-10-19T13:14:16.784Z,1.70
2022-10-19T13:15:16.772Z,1.50
2022-10-19T13:16:16.773Z,1.60
2022-10-19T13:17:16.764Z,1.70
2022-10-19T13:18:16.774Z,1.50
2022-10-19T13:19:16.769Z,1.60
2022-10-19T13:20:16.746Z,1.40
2022-10-19T13:21:16.733Z,1.50
2022-10-19T13:22:16.747Z,1.40
2022-10-19T13:23:16.712Z,1.80
2022-10-19T13:24:16.721Z,1.60